Time;durP1;ratioP1;P1;durP2;ratioP2;P2;SDS_P1;SDS_P2;PMS_P1;PMS_P2;Temp;Humidity;BMP_temperature;BMP_pressure;BME280_temperature;BME280_humidity;BME280_pressure;Samples;Min_cycle;Max_cycle;Signal;HPM_P1;HPM_P2
2023/04/25 00:02:08;;;;;;;3.08;1.30;;;;;;;23.23;34.85;101712.53;20992350;28;20662;-68
2023/04/25 00:12:09;;;;;;;3.70;1.63;;;;;;;23.19;34.85;101716.16;20986515;28;20048;-69
2023/04/25 00:22:11;;;;;;;6.85;1.15;;;;;;;23.15;35.19;101731.78;20960475;28;20481;-68
2023/04/25 00:32:13;;;;;;;1.58;1.10;;;;;;;23.21;35.36;101744.63;20975119;28;20462;-68
2023/04/25 00:42:17;;;;;;;4.43;1.30;;;;;;;23.20;35.02;101757.75;20985889;28;20094;-70
2023/04/25 00:52:19;;;;;;;2.97;1.20;;;;;;;23.06;35.09;101751.03;20976705;28;20044;-69
2023/04/25 01:02:21;;;;;;;1.42;0.98;;;;;;;23.21;35.28;101781.75;20989197;28;20051;-70
2023/04/25 01:12:23;;;;;;;4.88;0.93;;;;;;;23.03;35.19;101757.16;20964461;28;20041;-70
2023/04/25 01:22:28;;;;;;;4.75;1.27;;;;;;;23.19;35.37;101802.72;20967362;28;20028;-69
2023/04/25 01:32:37;;;;;;;8.95;1.38;;;;;;;23.01;35.28;101790.09;20975889;28;20565;-70
2023/04/25 01:42:41;;;;;;;5.18;1.25;;;;;;;23.09;35.39;101806.28;20984064;28;20048;-68
2023/04/25 01:52:43;;;;;;;4.07;1.05;;;;;;;23.21;35.38;101828.38;20987797;28;20420;-68
2023/04/25 02:02:44;;;;;;;3.67;1.30;;;;;;;23.19;35.40;101831.47;20991566;28;20111;-69
2023/04/25 02:12:46;;;;;;;1.48;0.95;;;;;;;23.18;35.50;101838.16;20953904;28;20102;-68
2023/04/25 02:22:47;;;;;;;3.15;1.42;;;;;;;23.02;35.35;101811.31;20993298;28;20104;-68
2023/04/25 02:32:48;;;;;;;3.25;1.38;;;;;;;23.21;35.70;101848.78;20990827;28;20098;-69
2023/04/25 02:42:50;;;;;;;13.95;1.88;;;;;;;23.21;35.31;101848.78;20976132;28;20040;-71
2023/04/25 02:52:51;;;;;;;7.13;1.45;;;;;;;23.27;35.43;101858.00;20987817;28;20056;-71
2023/04/25 03:02:53;;;;;;;2.92;1.27;;;;;;;23.17;35.25;101833.69;20928745;28;20154;-69
2023/04/25 03:12:54;;;;;;;1.83;0.80;;;;;;;23.16;34.76;101848.75;20920099;28;20507;-71
2023/04/25 03:22:56;;;;;;;1.45;1.15;;;;;;;23.25;34.79;101883.41;20919375;28;20398;-73
2023/04/25 03:32:57;;;;;;;1.33;1.10;;;;;;;23.27;34.29;101872.81;20920573;28;20055;-73
2023/04/25 03:42:59;;;;;;;2.63;1.38;;;;;;;23.30;34.42;101880.63;20919504;28;20078;-73
2023/04/25 03:53:00;;;;;;;3.13;1.10;;;;;;;23.30;34.00;101880.63;20919025;28;20057;-71
2023/04/25 04:03:01;;;;;;;4.00;1.33;;;;;;;23.38;34.86;101895.19;20918300;28;20074;-70
2023/04/25 04:13:05;;;;;;;1.67;1.10;;;;;;;23.30;33.75;101891.81;20916554;28;20244;-72
2023/04/25 04:23:07;;;;;;;1.88;1.00;;;;;;;23.43;33.95;101918.38;20915014;28;20082;-72
2023/04/25 04:33:14;;;;;;;2.08;1.10;;;;;;;23.17;33.77;101883.94;20895418;28;20487;-71
2023/04/25 04:43:17;;;;;;;1.10;1.00;;;;;;;23.20;33.66;101897.38;20912046;28;20111;-72
2023/04/25 04:53:18;;;;;;;1.30;1.05;;;;;;;23.21;33.45;101907.41;20911073;28;20036;-72
2023/04/25 05:03:20;;;;;;;3.42;0.98;;;;;;;23.38;33.63;101937.09;20915028;28;20052;-73
2023/04/25 05:13:21;;;;;;;1.20;1.10;;;;;;;23.30;33.43;101930.06;20911941;28;20133;-72
2023/04/25 05:23:23;;;;;;;3.30;1.10;;;;;;;23.28;33.57;101924.78;20912801;28;20114;-72
2023/04/25 05:33:26;;;;;;;1.77;1.10;;;;;;;23.25;33.63;101919.72;20911120;28;20135;-72
2023/04/25 05:43:28;;;;;;;2.20;1.05;;;;;;;23.29;33.51;101932.03;20909993;28;20049;-70
2023/04/25 05:53:29;;;;;;;2.05;1.13;;;;;;;23.27;33.37;101925.84;20909276;28;20048;-71
2023/04/25 06:03:33;;;;;;;1.80;1.10;;;;;;;23.15;33.85;101886.19;20909679;28;20582;-72
2023/04/25 06:13:34;;;;;;;1.23;1.13;;;;;;;23.24;33.59;101892.91;20911894;28;20093;-72
2023/04/25 06:23:36;;;;;;;1.33;1.17;;;;;;;23.22;33.64;101889.53;20917072;28;20109;-72
2023/04/25 06:33:37;;;;;;;1.40;1.15;;;;;;;23.21;33.35;101899.03;20925652;28;20395;-72
2023/04/25 06:43:38;;;;;;;1.20;1.00;;;;;;;23.19;33.61;101906.03;20927071;28;20053;-72
2023/04/25 06:53:40;;;;;;;2.28;1.15;;;;;;;23.15;33.67;101916.06;20932441;28;20049;-71
2023/04/25 07:03:42;;;;;;;1.20;0.95;;;;;;;23.15;33.40;101911.31;20931810;28;21577;-72
2023/04/25 07:13:43;;;;;;;0.82;0.82;;;;;;;23.11;33.86;101912.97;20932512;28;21479;-72
2023/04/25 07:23:44;;;;;;;1.15;0.90;;;;;;;23.09;33.81;101917.97;20931901;28;20074;-71
2023/04/25 07:33:48;;;;;;;2.10;0.80;;;;;;;23.11;33.39;101924.13;20926533;28;20040;-71
2023/04/25 07:43:49;;;;;;;1.20;0.70;;;;;;;23.11;33.65;101929.72;20910683;28;20071;-70
2023/04/25 07:53:54;;;;;;;0.95;0.80;;;;;;;23.08;33.77;101927.47;20884783;28;20045;-70
2023/04/25 08:03:55;;;;;;;0.95;0.77;;;;;;;23.06;33.56;101935.28;20882266;28;20082;-71
2023/04/25 08:13:56;;;;;;;2.03;0.90;;;;;;;22.91;33.33;101929.59;20884341;28;20036;-71
2023/04/25 08:24:01;;;;;;;1.00;0.65;;;;;;;22.86;33.49;101929.53;20884865;28;20484;-71
2023/04/25 08:34:08;;;;;;;1.00;0.90;;;;;;;23.02;33.80;101956.47;20883640;28;20572;-71
2023/04/25 08:44:11;;;;;;;1.55;0.90;;;;;;;23.02;33.69;101962.06;20882905;28;20415;-72
2023/04/25 08:54:14;;;;;;;1.40;0.90;;;;;;;22.88;33.45;101933.75;20880726;28;21764;-71
2023/04/25 09:04:20;;;;;;;0.82;0.82;;;;;;;22.76;33.95;101924.75;20881731;28;20049;-71
2023/04/25 09:14:24;;;;;;;0.90;0.75;;;;;;;22.88;33.53;101950.50;20879370;28;20138;-70
2023/04/25 09:24:43;;;;;;;1.35;1.10;;;;;;;22.93;33.79;101969.25;20879195;28;20450;-72
2023/04/25 09:34:50;;;;;;;0.97;0.90;;;;;;;22.87;33.63;101964.72;20878758;28;21606;-71
2023/04/25 09:44:54;;;;;;;1.10;1.00;;;;;;;22.89;33.55;101993.19;20891988;28;20056;-71
2023/04/25 09:54:58;;;;;;;0.93;0.70;;;;;;;22.87;33.88;101987.91;20918502;28;20048;-71
2023/04/25 10:05:03;;;;;;;1.10;0.80;;;;;;;22.55;33.71;101940.53;20946623;28;20131;-71
2023/04/25 10:15:05;;;;;;;0.75;0.75;;;;;;;22.84;33.55;102002.38;20944094;28;20049;-70
2023/04/25 10:25:08;;;;;;;1.02;0.93;;;;;;;22.20;33.80;101921.56;20968272;28;20045;-70
2023/04/25 10:35:24;;;;;;;2.92;1.15;;;;;;;22.79;33.79;102031.09;20983822;28;20109;-70
2023/04/25 10:45:25;;;;;;;1.10;1.00;;;;;;;22.80;33.54;102026.34;20967582;28;20065;-71
2023/04/25 10:55:47;;;;;;;1.08;0.98;;;;;;;22.77;33.46;102038.03;20905703;28;20041;-72
2023/04/25 11:05:52;;;;;;;1.27;1.00;;;;;;;22.76;33.38;102053.09;20904176;28;20098;-72
2023/04/25 11:15:53;;;;;;;1.13;0.85;;;;;;;22.61;33.39;102045.44;20919546;28;20045;-72
2023/04/25 11:25:55;;;;;;;1.58;0.88;;;;;;;22.63;35.22;102071.13;20920693;28;20036;-73
2023/04/25 11:35:56;;;;;;;3.83;1.80;;;;;;;22.46;33.91;102071.25;20904632;28;20048;-71
2023/04/25 11:45:58;;;;;;;4.43;1.30;;;;;;;22.58;35.05;102085.88;20888516;28;20041;-72
2023/04/25 11:55:59;;;;;;;7.57;1.27;;;;;;;22.40;35.63;102051.94;20911812;28;20041;-72
2023/04/25 12:06:04;;;;;;;2.92;0.98;;;;;;;22.52;35.65;102091.69;20886134;28;20049;-72
2023/04/25 12:16:11;;;;;;;7.55;1.38;;;;;;;22.54;35.28;102095.03;20873854;28;20045;-70
2023/04/25 12:26:13;;;;;;;9.67;1.53;;;;;;;22.36;35.24;102075.88;20914281;28;20442;-70
2023/04/25 12:36:16;;;;;;;3.58;1.08;;;;;;;22.56;35.39;102112.38;20916048;28;20063;-70
2023/04/25 12:46:18;;;;;;;5.45;1.33;;;;;;;22.53;35.37;102112.88;20949934;28;20048;-70
2023/04/25 12:56:19;;;;;;;3.08;1.00;;;;;;;22.32;35.31;102079.22;20993473;28;20049;-70
2023/04/25 13:06:24;;;;;;;3.83;1.10;;;;;;;22.49;35.23;102095.81;20994816;28;20036;-69
2023/04/25 13:16:25;;;;;;;2.88;1.15;;;;;;;22.45;35.26;102097.47;20990611;28;20078;-69
2023/04/25 13:26:26;;;;;;;2.67;1.27;;;;;;;22.44;35.18;102090.19;20960989;28;20045;-69
2023/04/25 13:36:28;;;;;;;1.65;0.90;;;;;;;22.50;35.18;102110.63;20909628;28;20061;-69
2023/04/25 13:46:29;;;;;;;2.10;0.98;;;;;;;22.48;35.61;102124.00;20931780;28;20029;-69
2023/04/25 13:56:33;;;;;;;1.30;1.15;;;;;;;22.46;35.46;102132.63;20991444;28;20453;-69
2023/04/25 14:06:35;;;;;;;2.08;1.05;;;;;;;22.47;35.83;102127.88;20991508;28;20036;-69
2023/04/25 14:16:36;;;;;;;2.72;0.88;;;;;;;22.48;35.38;102135.16;20990371;28;20048;-69
2023/04/25 14:26:38;;;;;;;1.20;1.00;;;;;;;22.48;35.48;102140.72;20990311;28;20041;-69
2023/04/25 14:36:39;;;;;;;1.08;0.90;;;;;;;22.36;35.66;102115.78;20990272;28;20525;-69
2023/04/25 14:46:41;;;;;;;2.15;0.90;;;;;;;22.43;35.32;102137.88;20998353;28;20071;-69
2023/04/25 14:56:42;;;;;;;1.52;0.88;;;;;;;22.49;35.17;102150.78;21004403;28;20040;-69
2023/04/25 15:06:46;;;;;;;2.65;0.95;;;;;;;22.48;35.37;102157.47;21005851;28;20442;-69
2023/04/25 15:16:47;;;;;;;1.02;0.70;;;;;;;22.46;35.17;102154.94;21005350;28;20106;-69
2023/04/25 15:26:49;;;;;;;1.73;0.70;;;;;;;22.47;34.99;102145.47;21003975;28;20075;-69
2023/04/25 15:36:50;;;;;;;1.23;0.82;;;;;;;22.48;34.72;102168.63;21003121;28;20032;-69
2023/04/25 15:46:51;;;;;;;0.90;0.77;;;;;;;22.46;34.93;102176.41;21001856;28;20036;-69
2023/04/25 15:56:53;;;;;;;2.08;0.80;;;;;;;22.43;34.81;102160.19;21001047;28;20056;-69
2023/04/25 16:06:54;;;;;;;1.08;0.63;;;;;;;22.47;34.61;102164.16;21001623;28;20041;-69
2023/04/25 16:16:56;;;;;;;2.20;0.70;;;;;;;22.45;34.68;102161.63;20999953;28;20040;-69
2023/04/25 16:26:57;;;;;;;0.95;0.55;;;;;;;22.45;34.45;102149.59;20999014;28;20549;-69
2023/04/25 16:37:01;;;;;;;0.82;0.52;;;;;;;22.45;34.36;102152.41;20999217;28;20028;-69
2023/04/25 16:47:04;;;;;;;0.98;0.60;;;;;;;22.39;34.41;102131.13;20998026;28;20040;-68
2023/04/25 16:57:09;;;;;;;0.50;0.50;;;;;;;22.43;34.56;102133.16;20979342;28;20151;-69
2023/04/25 17:07:10;;;;;;;0.55;0.55;;;;;;;22.44;34.52;102125.63;20995126;28;20071;-69
2023/04/25 17:17:12;;;;;;;0.60;0.50;;;;;;;22.43;34.49;102123.94;20995446;28;20036;-69
2023/04/25 17:27:13;;;;;;;1.02;0.60;;;;;;;22.36;33.95;102110.22;20994470;28;20043;-70
2023/04/25 17:37:16;;;;;;;0.73;0.63;;;;;;;22.39;34.36;102087.34;20989295;28;20052;-69
2023/04/25 17:47:17;;;;;;;0.60;0.50;;;;;;;22.43;34.06;102098.84;20988376;28;20045;-70
2023/04/25 17:57:21;;;;;;;0.90;0.73;;;;;;;22.43;34.23;102093.25;20992451;28;20040;-70
2023/04/25 18:07:22;;;;;;;0.60;0.60;;;;;;;22.38;34.00;102088.47;20992283;28;20047;-70
2023/04/25 18:17:24;;;;;;;0.55;0.55;;;;;;;22.42;33.77;102097.16;20995870;28;20044;-69
2023/04/25 18:27:25;;;;;;;0.50;0.50;;;;;;;22.41;34.01;102092.69;21008420;28;20509;-69
2023/04/25 18:37:27;;;;;;;1.10;0.70;;;;;;;22.41;33.91;102089.91;21007569;28;20102;-69
2023/04/25 18:47:31;;;;;;;0.57;0.50;;;;;;;22.40;34.04;102085.41;21006930;28;20044;-70
2023/04/25 18:57:35;;;;;;;1.05;0.60;;;;;;;22.39;34.18;102078.16;21006417;28;20472;-69
2023/04/25 19:07:37;;;;;;;0.73;0.70;;;;;;;22.39;32.75;102064.22;21000748;28;20036;-67
2023/04/25 19:17:38;;;;;;;1.05;0.77;;;;;;;22.29;33.32;102051.84;20950845;28;20052;-67
2023/04/25 19:27:39;;;;;;;5.07;1.60;;;;;;;22.23;34.21;102041.75;20965052;28;20049;-68
2023/04/25 19:37:44;;;;;;;7.07;2.10;;;;;;;22.36;34.33;102062.81;20996541;28;20044;-68
2023/04/25 19:47:46;;;;;;;5.90;2.75;;;;;;;22.38;34.81;102063.38;20935294;28;20484;-68
2023/04/25 19:57:48;;;;;;;4.55;2.70;;;;;;;22.21;34.79;102018.03;20917052;28;20053;-68
2023/04/25 20:07:49;;;;;;;2.95;2.67;;;;;;;22.41;34.59;102057.28;20906149;28;20042;-68
2023/04/25 20:17:50;;;;;;;3.30;2.78;;;;;;;22.26;34.47;102021.69;20909666;28;20035;-68
2023/04/25 20:27:55;;;;;;;3.08;2.78;;;;;;;22.35;34.29;102035.16;20902005;28;20443;-68
2023/04/25 20:37:57;;;;;;;3.08;2.67;;;;;;;22.46;34.64;102059.28;20927681;28;20045;-68
2023/04/25 20:47:58;;;;;;;5.20;2.45;;;;;;;22.42;34.29;102055.31;20972288;28;20044;-68
2023/04/25 20:58:00;;;;;;;1.80;1.70;;;;;;;22.46;34.41;102051.75;21000839;28;20044;-68
2023/04/25 21:08:04;;;;;;;3.70;2.03;;;;;;;22.38;34.67;102052.22;21011972;28;20101;-67
2023/04/25 21:18:08;;;;;;;2.00;1.70;;;;;;;22.49;34.24;102069.88;20995276;28;20443;-68
2023/04/25 21:28:10;;;;;;;2.22;1.80;;;;;;;22.48;34.27;102065.41;20992276;28;20044;-68
2023/04/25 21:38:13;;;;;;;2.15;1.67;;;;;;;22.28;34.20;102039.03;20976464;28;20491;-68
2023/04/25 21:48:14;;;;;;;2.03;1.83;;;;;;;22.41;34.53;102057.28;20977071;28;20041;-66
2023/04/25 21:58:16;;;;;;;4.22;1.52;;;;;;;22.45;34.43;102074.28;20905082;28;20045;-67
2023/04/25 22:08:17;;;;;;;3.85;1.40;;;;;;;22.47;34.24;102078.53;20892945;28;20045;-67
2023/04/25 22:18:19;;;;;;;6.47;1.52;;;;;;;22.32;34.49;102051.34;20906495;28;20037;-67
2023/04/25 22:28:20;;;;;;;1.92;1.65;;;;;;;22.52;34.16;102080.53;20913378;28;20049;-67
2023/04/25 22:38:21;;;;;;;4.65;1.67;;;;;;;22.47;34.28;102077.69;20938969;28;20118;-67
2023/04/25 22:48:23;;;;;;;4.03;1.35;;;;;;;22.48;33.60;102073.78;20967234;28;20040;-67
2023/04/25 22:58:27;;;;;;;2.05;1.30;;;;;;;22.37;33.64;102063.66;21001679;28;20102;-67
2023/04/25 23:08:30;;;;;;;2.50;2.17;;;;;;;22.44;31.89;102084.63;20973586;28;20037;-67
2023/04/25 23:18:31;;;;;;;3.55;1.67;;;;;;;22.42;32.94;102091.59;21020630;28;20106;-68
2023/04/25 23:28:32;;;;;;;1.98;1.40;;;;;;;22.40;33.21;102089.03;21012478;28;20044;-67
2023/04/25 23:38:34;;;;;;;2.25;1.40;;;;;;;22.37;33.31;102088.75;21009492;28;20040;-67
2023/04/25 23:48:38;;;;;;;3.50;1.70;;;;;;;22.32;32.63;102087.59;20991773;28;20044;-68
2023/04/25 23:58:39;;;;;;;4.53;1.80;;;;;;;22.17;31.36;102076.25;21005973;28;20052;-68
